Time;durP1;ratioP1;P1;durP2;ratioP2;P2;SDS_P1;SDS_P2;PMS_P1;PMS_P2;Temp;Humidity;BMP_temperature;BMP_pressure;BME280_temperature;BME280_humidity;BME280_pressure;Samples;Min_cycle;Max_cycle;Signal;HPM_P1;HPM_P2
2022/12/20 00:00:52;;;;;;;1.17;0.70;;;14.90;70.30;;;;;;5042520;28;45951;-73
2022/12/20 00:03:20;;;;;;;1.48;0.77;;;14.90;70.10;;;;;;5042656;28;45258;-73
2022/12/20 00:05:47;;;;;;;0.52;0.40;;;14.90;70.10;;;;;;5042675;28;45312;-73
2022/12/20 00:08:16;;;;;;;1.95;0.60;;;14.90;70.30;;;;;;5042294;28;46825;-73
2022/12/20 00:10:45;;;;;;;0.63;0.47;;;14.90;70.40;;;;;;5043556;28;45358;-73
2022/12/20 00:13:12;;;;;;;0.82;0.60;;;14.90;70.50;;;;;;5042708;28;45431;-73
2022/12/20 00:15:39;;;;;;;0.70;0.40;;;14.90;70.60;;;;;;5041903;28;45632;-73
2022/12/20 00:18:06;;;;;;;4.22;0.70;;;14.90;70.70;;;;;;5042773;28;47362;-73
2022/12/20 00:20:32;;;;;;;0.82;0.60;;;14.90;70.80;;;;;;5042230;28;45345;-73
2022/12/20 00:22:59;;;;;;;1.13;0.65;;;14.80;70.70;;;;;;5042739;28;45424;-73
2022/12/20 00:25:28;;;;;;;0.70;0.50;;;14.90;70.80;;;;;;5041840;28;45554;-72
2022/12/20 00:27:55;;;;;;;0.70;0.60;;;14.90;70.70;;;;;;5062200;28;46472;-73
2022/12/20 00:30:21;;;;;;;2.13;0.80;;;14.90;70.80;;;;;;5062981;28;45339;-73
2022/12/20 00:32:48;;;;;;;0.93;0.50;;;14.90;70.70;;;;;;5065384;28;45347;-73
2022/12/20 00:35:15;;;;;;;1.15;0.82;;;14.90;70.70;;;;;;5066538;28;45493;-73
2022/12/20 00:37:42;;;;;;;4.50;0.80;;;14.90;70.80;;;;;;5065160;28;47940;-73
2022/12/20 00:40:10;;;;;;;1.33;0.60;;;14.90;70.80;;;;;;5065931;28;45490;-73
2022/12/20 00:42:38;;;;;;;0.98;0.35;;;14.90;70.70;;;;;;5065053;28;45275;-73
2022/12/20 00:45:05;;;;;;;1.17;0.60;;;14.90;70.70;;;;;;5064088;28;45447;-73
2022/12/20 00:47:32;;;;;;;0.82;0.60;;;14.90;70.40;;;;;;5055681;28;45373;-73
2022/12/20 00:49:59;;;;;;;0.73;0.60;;;14.90;70.50;;;;;;5066152;28;45260;-73
2022/12/20 00:52:26;;;;;;;0.90;0.50;;;14.90;70.50;;;;;;5065937;28;45477;-73
2022/12/20 00:54:52;;;;;;;0.80;0.65;;;14.90;70.50;;;;;;5056305;28;45528;-72
2022/12/20 00:57:19;;;;;;;0.65;0.40;;;14.90;70.60;;;;;;5065921;28;46592;-72
2022/12/20 00:59:47;;;;;;;0.85;0.50;;;14.90;70.70;;;;;;5063360;28;45288;-72
2022/12/20 01:02:14;;;;;;;2.25;0.40;;;14.90;70.70;;;;;;5045608;28;45431;-72
2022/12/20 01:04:41;;;;;;;0.70;0.52;;;14.90;70.80;;;;;;5045292;28;45389;-73
2022/12/20 01:07:08;;;;;;;1.33;0.55;;;14.90;70.80;;;;;;5044777;28;47057;-73
2022/12/20 01:09:34;;;;;;;0.85;0.45;;;14.90;70.90;;;;;;5045452;28;45728;-72
2022/12/20 01:12:01;;;;;;;1.35;0.50;;;14.90;70.90;;;;;;5045410;28;45343;-73
2022/12/20 01:14:28;;;;;;;1.52;0.50;;;14.90;70.90;;;;;;5044908;28;45507;-72
2022/12/20 01:16:56;;;;;;;1.15;0.57;;;14.90;70.90;;;;;;5059475;28;46353;-72
2022/12/20 01:19:23;;;;;;;0.98;0.57;;;14.90;70.90;;;;;;5065290;28;45422;-72
2022/12/20 01:21:50;;;;;;;0.50;0.50;;;14.90;70.90;;;;;;5065734;28;45280;-72
2022/12/20 01:24:19;;;;;;;1.25;0.75;;;14.90;70.90;;;;;;5064801;28;45312;-74
2022/12/20 01:26:46;;;;;;;0.77;0.60;;;14.90;71.00;;;;;;5065364;28;45442;-72
2022/12/20 01:29:13;;;;;;;1.50;0.52;;;14.90;71.10;;;;;;5064856;28;45288;-73
2022/12/20 01:31:41;;;;;;;1.10;0.52;;;14.90;71.00;;;;;;5065245;28;45337;-71
2022/12/20 01:34:10;;;;;;;2.35;0.47;;;14.90;71.00;;;;;;5063302;28;45497;-73
2022/12/20 01:36:38;;;;;;;3.28;0.50;;;14.90;70.90;;;;;;5065276;28;45633;-72
2022/12/20 01:39:07;;;;;;;1.33;0.77;;;14.90;70.80;;;;;;5065297;28;45254;-73
2022/12/20 01:41:35;;;;;;;0.95;0.60;;;14.90;70.90;;;;;;5064079;28;45374;-73
2022/12/20 01:44:05;;;;;;;1.30;0.60;;;15.00;71.00;;;;;;5064812;28;45410;-73
2022/12/20 01:46:33;;;;;;;0.82;0.40;;;15.00;70.90;;;;;;5054986;28;45567;-73
2022/12/20 01:49:05;;;;;;;0.57;0.47;;;15.00;70.90;;;;;;5044683;28;45285;-72
2022/12/20 01:51:36;;;;;;;1.02;0.60;;;15.00;71.00;;;;;;5053285;28;45280;-72
2022/12/20 01:54:07;;;;;;;0.60;0.50;;;15.00;71.20;;;;;;5064742;28;45559;-73
2022/12/20 01:56:35;;;;;;;0.85;0.68;;;15.00;71.10;;;;;;5064468;28;45569;-73
2022/12/20 01:59:02;;;;;;;0.80;0.60;;;15.00;71.20;;;;;;5064408;28;45449;-72
2022/12/20 02:01:29;;;;;;;0.52;0.45;;;15.00;71.20;;;;;;5064241;28;45377;-72
2022/12/20 02:03:56;;;;;;;0.70;0.50;;;15.00;71.20;;;;;;5064713;28;45263;-72
2022/12/20 02:06:25;;;;;;;1.00;0.60;;;14.90;71.20;;;;;;5064274;28;46404;-72
2022/12/20 02:08:57;;;;;;;1.08;0.50;;;14.90;71.30;;;;;;5063355;28;45298;-72
2022/12/20 02:11:37;;;;;;;2.42;0.60;;;14.90;71.40;;;;;;5065125;28;45387;-72
2022/12/20 02:14:14;;;;;;;0.55;0.40;;;14.90;71.30;;;;;;5065115;28;45267;-72
2022/12/20 02:16:48;;;;;;;2.42;0.60;;;14.90;71.40;;;;;;5063278;28;45620;-72
2022/12/20 02:19:34;;;;;;;1.50;0.43;;;14.90;71.30;;;;;;5064279;28;45769;-73
2022/12/20 02:22:15;;;;;;;1.55;0.55;;;14.90;71.30;;;;;;5064292;28;45281;-72
2022/12/20 02:25:14;;;;;;;0.63;0.40;;;14.90;71.30;;;;;;5063502;28;45246;-73
2022/12/20 02:27:54;;;;;;;0.90;0.40;;;15.00;71.20;;;;;;5063776;28;45309;-73
2022/12/20 02:30:26;;;;;;;0.77;0.60;;;15.00;71.10;;;;;;5064383;28;45463;-73
2022/12/20 02:32:58;;;;;;;1.33;0.40;;;15.00;71.10;;;;;;5063611;28;45315;-73
2022/12/20 02:35:28;;;;;;;2.55;0.88;;;15.00;71.00;;;;;;5063887;28;45295;-73
2022/12/20 02:37:57;;;;;;;1.20;0.60;;;15.00;71.00;;;;;;5063629;28;46285;-72
2022/12/20 02:40:27;;;;;;;0.65;0.60;;;15.00;71.20;;;;;;5063999;28;45344;-72
2022/12/20 02:42:58;;;;;;;0.88;0.50;;;15.00;71.20;;;;;;5063900;28;45381;-73
2022/12/20 02:45:32;;;;;;;1.95;0.73;;;15.00;71.30;;;;;;5063339;28;45562;-73
2022/12/20 02:48:02;;;;;;;1.63;0.52;;;15.00;71.40;;;;;;5059316;28;45371;-73
2022/12/20 02:50:32;;;;;;;0.68;0.45;;;15.00;71.50;;;;;;5051386;28;45254;-72
2022/12/20 02:53:00;;;;;;;1.85;0.52;;;15.00;71.50;;;;;;5063832;28;45581;-73
2022/12/20 02:55:39;;;;;;;2.08;0.70;;;15.00;71.50;;;;;;5061966;28;45566;-73
2022/12/20 02:58:10;;;;;;;0.88;0.55;;;15.00;71.60;;;;;;5064229;28;46503;-73
2022/12/20 03:00:45;;;;;;;0.90;0.60;;;15.00;71.60;;;;;;5062200;28;45226;-73
2022/12/20 03:03:22;;;;;;;1.05;0.73;;;15.00;71.80;;;;;;5054185;28;45428;-73
2022/12/20 03:05:50;;;;;;;2.15;0.60;;;14.90;71.60;;;;;;5043519;28;45427;-72
2022/12/20 03:08:17;;;;;;;1.42;0.60;;;15.00;71.80;;;;;;5042923;28;48446;-72
2022/12/20 03:10:44;;;;;;;1.63;0.70;;;15.00;71.90;;;;;;5043260;28;45530;-72
2022/12/20 03:13:11;;;;;;;0.73;0.50;;;15.00;71.70;;;;;;5043103;28;45299;-72
2022/12/20 03:15:39;;;;;;;1.35;0.70;;;15.00;71.60;;;;;;5043475;28;45531;-72
2022/12/20 03:18:06;;;;;;;0.95;0.68;;;15.00;71.50;;;;;;5053309;28;48204;-73
2022/12/20 03:20:33;;;;;;;2.15;0.60;;;15.00;71.40;;;;;;5042880;28;45363;-72
2022/12/20 03:23:00;;;;;;;0.60;0.60;;;15.00;71.40;;;;;;5043824;28;45362;-72
2022/12/20 03:25:28;;;;;;;1.65;1.00;;;15.00;71.40;;;;;;5042374;28;45350;-71
2022/12/20 03:27:55;;;;;;;1.30;0.60;;;15.00;71.30;;;;;;5043018;28;47393;-71
2022/12/20 03:30:21;;;;;;;0.77;0.60;;;15.00;71.50;;;;;;5042360;28;45438;-72
2022/12/20 03:32:50;;;;;;;0.98;0.60;;;15.00;71.50;;;;;;5042404;28;45499;-72
2022/12/20 03:35:16;;;;;;;0.57;0.40;;;15.00;71.50;;;;;;5042839;28;45255;-72
2022/12/20 03:37:43;;;;;;;1.08;0.70;;;15.00;71.50;;;;;;5042998;28;46990;-72
2022/12/20 03:40:11;;;;;;;1.60;0.80;;;15.00;71.70;;;;;;5042695;28;45462;-72
2022/12/20 03:42:38;;;;;;;1.92;0.70;;;15.00;71.70;;;;;;5042133;28;45397;-72
2022/12/20 03:45:06;;;;;;;0.88;0.70;;;15.00;71.80;;;;;;5042737;28;45654;-71
2022/12/20 03:47:33;;;;;;;1.10;0.70;;;15.00;71.80;;;;;;5042801;28;47953;-72
2022/12/20 03:50:01;;;;;;;1.08;0.70;;;15.00;71.90;;;;;;5061844;28;45320;-72
2022/12/20 03:52:28;;;;;;;0.70;0.70;;;15.00;71.90;;;;;;5063073;28;45460;-72
2022/12/20 03:54:55;;;;;;;1.48;0.77;;;15.00;71.80;;;;;;5062481;28;45404;-72
2022/12/20 03:57:21;;;;;;;1.73;0.77;;;15.00;71.90;;;;;;5062905;28;47542;-72
2022/12/20 03:59:48;;;;;;;0.75;0.55;;;15.00;72.00;;;;;;5062765;28;45330;-72
2022/12/20 04:02:15;;;;;;;3.42;0.70;;;15.00;71.80;;;;;;5063003;28;45296;-71
2022/12/20 04:04:42;;;;;;;1.83;1.00;;;15.00;71.70;;;;;;5061314;28;45301;-72
2022/12/20 04:07:10;;;;;;;2.70;0.73;;;15.00;71.70;;;;;;5061694;28;46575;-72
2022/12/20 04:09:36;;;;;;;0.77;0.73;;;15.00;71.60;;;;;;5062836;28;45986;-72
2022/12/20 04:12:03;;;;;;;0.95;0.70;;;15.00;71.50;;;;;;5062418;28;45375;-72
2022/12/20 04:14:30;;;;;;;1.20;0.70;;;15.00;71.50;;;;;;5062844;28;45534;-71
2022/12/20 04:16:57;;;;;;;1.55;0.90;;;15.10;71.50;;;;;;5061904;28;48939;-71
2022/12/20 04:19:24;;;;;;;0.80;0.80;;;15.00;70.80;;;;;;5042227;28;45723;-72
2022/12/20 04:21:51;;;;;;;0.88;0.68;;;15.00;70.70;;;;;;5042134;28;45298;-72
2022/12/20 04:24:19;;;;;;;1.52;0.85;;;15.00;70.80;;;;;;5048355;28;45331;-72
2022/12/20 04:26:46;;;;;;;1.60;0.80;;;15.00;70.90;;;;;;5059157;28;46572;-72
2022/12/20 04:29:13;;;;;;;1.05;0.95;;;14.90;70.70;;;;;;5059698;28;45522;-71
2022/12/20 04:31:39;;;;;;;1.27;0.77;;;14.90;70.70;;;;;;5059306;28;45300;-71
2022/12/20 04:34:06;;;;;;;1.52;0.93;;;14.90;70.70;;;;;;5052490;28;45260;-72
2022/12/20 04:36:33;;;;;;;1.58;0.80;;;14.90;71.80;;;;;;5061539;28;46296;-71
2022/12/20 04:39:00;;;;;;;0.95;0.70;;;14.90;70.80;;;;;;5061725;28;45283;-72
2022/12/20 04:41:28;;;;;;;2.15;0.90;;;14.90;70.80;;;;;;5061896;28;45353;-71
2022/12/20 04:43:56;;;;;;;1.05;0.82;;;14.90;70.90;;;;;;5062676;28;45485;-72
2022/12/20 04:46:25;;;;;;;1.55;0.90;;;14.90;70.90;;;;;;5053361;28;47839;-72
2022/12/20 04:48:52;;;;;;;1.23;0.75;;;14.90;70.80;;;;;;5041750;28;45539;-72
2022/12/20 04:51:19;;;;;;;1.15;0.85;;;14.90;70.80;;;;;;5042735;28;45482;-72
2022/12/20 04:53:47;;;;;;;0.95;0.82;;;14.90;70.50;;;;;;5040801;28;45312;-71
2022/12/20 04:56:17;;;;;;;2.55;1.00;;;14.90;70.30;;;;;;5057469;28;47428;-72
2022/12/20 04:58:45;;;;;;;1.15;0.80;;;14.90;70.30;;;;;;5055338;28;45332;-72
2022/12/20 05:01:12;;;;;;;2.20;1.00;;;14.90;70.30;;;;;;5061476;28;45265;-71
2022/12/20 05:03:39;;;;;;;1.02;0.60;;;15.00;70.30;;;;;;5061731;28;45527;-71
2022/12/20 05:06:07;;;;;;;2.17;1.25;;;15.00;70.10;;;;;;5061818;28;45720;-71
2022/12/20 05:08:34;;;;;;;1.83;1.10;;;15.00;70.00;;;;;;5061327;28;45458;-72
2022/12/20 05:11:01;;;;;;;1.10;0.90;;;15.00;70.00;;;;;;5062300;28;45336;-71
2022/12/20 05:13:28;;;;;;;1.02;0.73;;;15.00;70.10;;;;;;5062126;28;45285;-71
2022/12/20 05:15:57;;;;;;;1.10;0.80;;;14.90;70.10;;;;;;5061270;28;45308;-72
2022/12/20 05:18:25;;;;;;;1.67;0.88;;;14.90;70.10;;;;;;5065277;28;45958;-72
2022/12/20 05:26:19;;;;;;;1.33;0.80;;;14.80;70.00;;;;;;5063737;28;45410;-72
2022/12/20 05:28:46;;;;;;;2.65;0.85;;;14.80;69.90;;;;;;5065337;28;45435;-72
2022/12/20 05:31:14;;;;;;;1.45;0.80;;;14.80;70.00;;;;;;5064725;28;45462;-71
2022/12/20 05:33:41;;;;;;;1.42;1.02;;;14.80;70.00;;;;;;5062901;28;45563;-72
2022/12/20 05:36:09;;;;;;;1.25;0.90;;;14.80;70.00;;;;;;5064583;28;45410;-71
2022/12/20 05:38:36;;;;;;;2.65;1.10;;;14.80;70.00;;;;;;5064503;28;45499;-71
2022/12/20 05:41:05;;;;;;;1.05;0.75;;;14.80;71.50;;;;;;5056122;28;45404;-72
2022/12/20 05:43:32;;;;;;;0.93;0.70;;;14.80;71.30;;;;;;5057550;28;45666;-71
2022/12/20 05:45:59;;;;;;;1.00;0.70;;;14.80;70.90;;;;;;5055572;28;46649;-71
2022/12/20 05:48:27;;;;;;;1.05;0.95;;;14.70;70.30;;;;;;5050305;28;45555;-71
2022/12/20 05:50:53;;;;;;;1.83;1.10;;;14.70;70.00;;;;;;5053088;28;45348;-71
2022/12/20 05:53:20;;;;;;;2.40;0.85;;;14.70;70.00;;;;;;5047700;28;45541;-71
2022/12/20 05:55:49;;;;;;;1.05;0.80;;;14.70;69.80;;;;;;5055232;28;45265;-71
2022/12/20 05:58:16;;;;;;;1.27;1.00;;;14.70;69.80;;;;;;5064886;28;45446;-71
2022/12/20 06:00:44;;;;;;;2.58;1.33;;;14.80;69.90;;;;;;5063536;28;45301;-71
2022/12/20 06:03:13;;;;;;;1.65;1.02;;;14.80;69.70;;;;;;5063299;28;45297;-71
2022/12/20 06:05:43;;;;;;;1.73;0.80;;;14.80;69.60;;;;;;5052329;28;46281;-71
2022/12/20 06:08:11;;;;;;;2.65;0.73;;;14.80;69.70;;;;;;5052175;28;45218;-71
2022/12/20 06:10:39;;;;;;;1.25;0.73;;;14.80;69.60;;;;;;5077935;27;45564;-71
2022/12/20 06:13:07;;;;;;;1.85;0.85;;;14.80;69.60;;;;;;5071636;28;45449;-71
2022/12/20 06:15:34;;;;;;;1.70;0.80;;;14.80;70.20;;;;;;5053337;28;48052;-71
2022/12/20 06:18:01;;;;;;;1.15;0.80;;;14.70;70.50;;;;;;5055251;28;45379;-71
2022/12/20 06:20:28;;;;;;;1.33;0.75;;;14.80;70.80;;;;;;5043952;28;45366;-71
2022/12/20 06:22:56;;;;;;;1.15;0.80;;;14.80;70.90;;;;;;5045189;28;45316;-71
2022/12/20 06:25:23;;;;;;;1.45;0.95;;;14.80;71.00;;;;;;5042923;28;45538;-71
2022/12/20 06:27:49;;;;;;;3.25;1.08;;;14.80;71.10;;;;;;5043773;28;45304;-71
2022/12/20 06:30:17;;;;;;;2.15;0.98;;;14.90;71.20;;;;;;5043571;28;45320;-71
2022/12/20 06:32:44;;;;;;;1.90;0.85;;;14.90;71.10;;;;;;5043035;28;45387;-72
2022/12/20 06:35:11;;;;;;;1.67;0.70;;;14.90;71.20;;;;;;5043269;28;47031;-72
2022/12/20 06:37:39;;;;;;;1.42;0.70;;;14.90;71.20;;;;;;5044210;28;45306;-71
2022/12/20 06:40:09;;;;;;;1.30;0.80;;;14.90;71.30;;;;;;5048910;28;45271;-72
2022/12/20 06:42:36;;;;;;;0.70;0.65;;;14.90;71.30;;;;;;5064338;28;45400;-71
2022/12/20 06:45:03;;;;;;;1.38;0.70;;;15.00;71.30;;;;;;5063751;28;45444;-71
2022/12/20 06:47:30;;;;;;;0.85;0.80;;;15.00;71.30;;;;;;5063837;28;45313;-71
2022/12/20 06:49:57;;;;;;;1.23;0.68;;;15.00;71.40;;;;;;5064000;28;45313;-71
2022/12/20 06:52:24;;;;;;;2.15;0.80;;;15.00;71.40;;;;;;5064050;28;45320;-71
2022/12/20 06:54:51;;;;;;;1.92;1.00;;;15.00;71.10;;;;;;5063480;28;45556;-70
2022/12/20 06:57:19;;;;;;;0.70;0.70;;;14.90;70.80;;;;;;5063289;28;45359;-70
2022/12/20 06:59:46;;;;;;;2.72;0.70;;;14.90;70.70;;;;;;5062784;28;45484;-71
2022/12/20 07:02:14;;;;;;;1.27;0.90;;;14.90;70.80;;;;;;5063661;28;45466;-71
2022/12/20 07:04:41;;;;;;;1.70;0.98;;;14.90;70.70;;;;;;5062688;28;46811;-70
2022/12/20 07:07:08;;;;;;;2.08;1.13;;;14.90;70.50;;;;;;5062946;28;45430;-71
2022/12/20 07:09:36;;;;;;;1.08;0.75;;;14.90;70.40;;;;;;5063525;28;45336;-71
2022/12/20 07:12:04;;;;;;;1.05;0.82;;;14.90;70.40;;;;;;5063317;28;45363;-71
2022/12/20 07:14:32;;;;;;;1.27;0.70;;;14.90;70.30;;;;;;5063210;28;47233;-70
2022/12/20 07:16:59;;;;;;;1.75;0.88;;;14.90;70.30;;;;;;5061715;28;45277;-70
2022/12/20 07:19:26;;;;;;;1.73;0.80;;;14.90;70.10;;;;;;5063048;28;45278;-72
2022/12/20 07:21:53;;;;;;;1.33;0.80;;;14.90;70.10;;;;;;5063349;28;45355;-71
2022/12/20 07:24:19;;;;;;;1.95;0.80;;;14.90;70.00;;;;;;5062203;28;45601;-71
2022/12/20 07:26:46;;;;;;;2.13;0.93;;;14.90;69.90;;;;;;5061611;28;45409;-71
2022/12/20 07:29:13;;;;;;;1.40;0.73;;;14.90;69.70;;;;;;5062350;28;45292;-71
2022/12/20 07:31:41;;;;;;;1.63;0.88;;;15.00;69.70;;;;;;5056495;28;45418;-71
2022/12/20 07:34:08;;;;;;;1.65;0.68;;;15.00;69.80;;;;;;5061941;28;46679;-71
2022/12/20 07:36:35;;;;;;;27.63;3.60;;;15.00;69.60;;;;;;5060960;28;45499;-70
2022/12/20 07:39:02;;;;;;;11.13;1.98;;;15.00;72.20;;;;;;5061711;28;45474;-71
2022/12/20 07:41:29;;;;;;;5.38;1.50;;;15.00;71.00;;;;;;5061715;28;45377;-70
2022/12/20 07:43:57;;;;;;;4.00;1.40;;;15.00;70.80;;;;;;5062863;28;45391;-71
2022/12/20 07:46:24;;;;;;;6.32;1.33;;;15.00;70.60;;;;;;5061349;28;45403;-69
2022/12/20 07:48:52;;;;;;;3.38;1.40;;;15.00;71.00;;;;;;5051708;28;45461;-70
2022/12/20 07:51:26;;;;;;;2.22;0.80;;;14.90;70.80;;;;;;5061135;28;45277;-70
2022/12/20 07:53:58;;;;;;;2.92;0.98;;;14.90;70.80;;;;;;5061312;28;46070;-70
2022/12/20 07:56:27;;;;;;;2.85;1.17;;;14.90;71.20;;;;;;5062110;28;45328;-70
2022/12/20 07:58:58;;;;;;;2.17;1.00;;;14.90;71.50;;;;;;5061275;28;45356;-69
2022/12/20 08:01:27;;;;;;;2.10;0.93;;;14.90;71.70;;;;;;5062867;28;45524;-70
2022/12/20 08:04:00;;;;;;;2.63;0.80;;;14.90;71.90;;;;;;5061587;28;46168;-71
2022/12/20 08:06:26;;;;;;;4.25;1.10;;;14.90;72.70;;;;;;5058160;28;45580;-71
2022/12/20 08:08:57;;;;;;;3.20;1.05;;;14.90;72.30;;;;;;5062427;28;45448;-71
2022/12/20 08:11:25;;;;;;;1.65;0.90;;;14.90;72.50;;;;;;5062967;28;45431;-71
2022/12/20 08:13:52;;;;;;;1.98;0.82;;;14.90;72.60;;;;;;5062185;28;46426;-72
2022/12/20 08:16:19;;;;;;;2.45;0.98;;;14.90;72.70;;;;;;5061757;28;45561;-71
2022/12/20 08:18:46;;;;;;;0.85;0.65;;;14.90;72.70;;;;;;5062613;28;45576;-71
2022/12/20 08:21:14;;;;;;;1.70;0.73;;;15.00;72.70;;;;;;5061869;28;45395;-72
2022/12/20 08:23:41;;;;;;;2.03;0.90;;;15.00;72.80;;;;;;5054846;28;45452;-71
2022/12/20 08:26:08;;;;;;;2.20;0.95;;;15.00;72.70;;;;;;5061012;28;46424;-71
2022/12/20 08:28:35;;;;;;;1.55;0.80;;;15.00;72.80;;;;;;5061460;28;45347;-71
2022/12/20 08:31:02;;;;;;;1.98;0.80;;;15.00;72.60;;;;;;5058187;28;45634;-73
2022/12/20 08:33:29;;;;;;;2.55;0.90;;;15.00;72.80;;;;;;5062100;28;48224;-71
2022/12/20 08:36:01;;;;;;;1.20;0.73;;;15.00;73.00;;;;;;5061910;28;45316;-71
2022/12/20 08:38:30;;;;;;;3.38;0.90;;;15.00;73.00;;;;;;5063850;28;45265;-72
2022/12/20 08:41:02;;;;;;;1.42;0.70;;;15.00;73.20;;;;;;5064138;28;45450;-71
2022/12/20 08:43:29;;;;;;;1.85;1.00;;;15.00;73.40;;;;;;5063768;28;45324;-71
2022/12/20 08:45:56;;;;;;;1.42;0.70;;;15.00;73.50;;;;;;5062952;28;45328;-71
2022/12/20 08:48:23;;;;;;;1.67;0.90;;;15.00;73.80;;;;;;5062522;28;45242;-71
2022/12/20 08:50:54;;;;;;;1.83;0.95;;;15.00;73.60;;;;;;5063693;28;45204;-71
2022/12/20 08:53:21;;;;;;;1.20;0.70;;;15.10;74.00;;;;;;5066950;28;46583;-71
2022/12/20 08:55:50;;;;;;;3.97;1.00;;;15.10;73.80;;;;;;5066841;28;45426;-71
2022/12/20 08:58:17;;;;;;;2.30;0.82;;;15.10;73.60;;;;;;5067223;28;45221;-72
2022/12/20 09:00:44;;;;;;;2.22;0.90;;;15.00;73.90;;;;;;5066172;28;45482;-71
2022/12/20 09:03:12;;;;;;;1.63;0.77;;;15.10;73.80;;;;;;5066440;28;48165;-71
2022/12/20 09:05:44;;;;;;;1.17;0.80;;;15.10;73.60;;;;;;5066212;28;45311;-72
2022/12/20 09:08:11;;;;;;;2.05;1.10;;;15.10;73.90;;;;;;5064292;28;45315;-71
2022/12/20 09:10:38;;;;;;;1.05;0.65;;;15.10;73.50;;;;;;5067294;28;45393;-71
2022/12/20 09:13:06;;;;;;;1.98;0.75;;;15.10;73.40;;;;;;5066691;28;45500;-71
2022/12/20 09:15:34;;;;;;;1.27;0.90;;;15.20;73.50;;;;;;5066557;28;45325;-71
2022/12/20 09:18:01;;;;;;;1.85;0.90;;;15.20;73.50;;;;;;5067200;28;45229;-71
2022/12/20 09:20:28;;;;;;;0.77;0.68;;;15.20;73.50;;;;;;5066623;28;45715;-71
2022/12/20 09:22:55;;;;;;;1.67;0.80;;;15.20;73.60;;;;;;5066402;28;46325;-71
2022/12/20 09:25:22;;;;;;;2.05;0.90;;;15.20;73.70;;;;;;5066097;28;45499;-71
2022/12/20 09:27:49;;;;;;;1.85;1.00;;;15.20;73.40;;;;;;5067012;28;45255;-71
2022/12/20 09:30:17;;;;;;;2.20;1.00;;;15.10;73.40;;;;;;5066839;28;45381;-71
2022/12/20 09:32:45;;;;;;;0.82;0.73;;;15.10;73.50;;;;;;5066434;28;47384;-71
2022/12/20 09:35:12;;;;;;;0.68;0.60;;;15.10;73.60;;;;;;5066654;28;45388;-71
2022/12/20 09:37:39;;;;;;;0.73;0.60;;;15.10;73.40;;;;;;5066603;28;45497;-71
2022/12/20 09:40:10;;;;;;;2.88;0.82;;;15.10;73.50;;;;;;5066428;28;45561;-71
2022/12/20 09:42:37;;;;;;;1.92;0.88;;;15.10;73.40;;;;;;5065652;28;46548;-71
2022/12/20 09:45:08;;;;;;;1.83;0.82;;;15.10;73.30;;;;;;5066596;28;45266;-74
2022/12/20 09:47:38;;;;;;;1.70;1.00;;;15.10;73.20;;;;;;5065467;28;45230;-71
2022/12/20 09:50:06;;;;;;;1.77;0.93;;;15.10;73.10;;;;;;5066884;28;45339;-69
2022/12/20 09:52:51;;;;;;;2.13;0.90;;;15.10;73.10;;;;;;5066159;28;47544;-72
2022/12/20 09:55:27;;;;;;;1.48;0.95;;;15.10;73.00;;;;;;5066223;28;45296;-71
2022/12/20 09:58:05;;;;;;;1.65;0.80;;;15.10;72.90;;;;;;5066451;28;45367;-72
2022/12/20 10:00:36;;;;;;;2.53;1.17;;;15.20;73.00;;;;;;5065659;28;45503;-71
2022/12/20 10:03:04;;;;;;;2.15;0.98;;;15.20;72.80;;;;;;5064971;28;46844;-72
2022/12/20 10:05:45;;;;;;;2.17;0.77;;;15.20;72.70;;;;;;5047901;28;45245;-71
2022/12/20 10:08:21;;;;;;;3.25;1.05;;;15.20;72.60;;;;;;5045809;28;45583;-71
2022/12/20 10:10:56;;;;;;;1.63;0.88;;;15.20;72.80;;;;;;5045760;28;45449;-72
2022/12/20 10:13:42;;;;;;;1.65;0.77;;;15.20;73.10;;;;;;5046020;28;47120;-71
2022/12/20 10:16:22;;;;;;;1.25;0.70;;;15.20;73.60;;;;;;5045192;28;45310;-71
2022/12/20 10:19:02;;;;;;;1.95;0.90;;;15.30;74.10;;;;;;5045818;28;45350;-71
2022/12/20 10:21:40;;;;;;;3.10;1.00;;;15.30;73.70;;;;;;5053870;28;45300;-71
2022/12/20 10:24:16;;;;;;;1.60;0.80;;;15.20;74.00;;;;;;5064340;28;45217;-71
2022/12/20 10:26:43;;;;;;;1.55;0.80;;;15.20;74.10;;;;;;5064702;28;45202;-72
2022/12/20 10:29:12;;;;;;;1.02;0.75;;;15.20;74.00;;;;;;5065460;28;45407;-72
2022/12/20 10:31:39;;;;;;;1.33;0.80;;;15.20;74.10;;;;;;5065610;28;45470;-72
2022/12/20 10:34:07;;;;;;;1.30;0.70;;;15.20;74.10;;;;;;5065674;28;47904;-72
2022/12/20 10:36:36;;;;;;;4.28;0.93;;;15.20;74.10;;;;;;5064836;28;45314;-71
2022/12/20 10:39:05;;;;;;;1.05;0.70;;;15.20;75.10;;;;;;5063492;28;45527;-71
2022/12/20 10:41:47;;;;;;;1.35;0.80;;;15.20;74.30;;;;;;5063871;28;45558;-73
2022/12/20 10:44:21;;;;;;;2.50;0.93;;;15.10;74.10;;;;;;5061245;28;45347;-71
2022/12/20 10:46:52;;;;;;;0.80;0.80;;;15.20;74.00;;;;;;5064149;28;45450;-72
2022/12/20 10:49:29;;;;;;;0.95;0.60;;;15.20;74.10;;;;;;5063287;28;45218;-73
2022/12/20 10:51:59;;;;;;;2.92;1.08;;;15.20;74.00;;;;;;5052028;28;45446;-72
2022/12/20 10:54:30;;;;;;;2.33;1.05;;;15.20;74.10;;;;;;5043855;28;45298;-73
2022/12/20 10:56:59;;;;;;;2.83;1.10;;;15.20;74.10;;;;;;5043164;28;45377;-72
2022/12/20 10:59:32;;;;;;;5.93;1.02;;;15.20;74.10;;;;;;5044863;28;45234;-71
2022/12/20 11:01:59;;;;;;;0.85;0.80;;;15.30;74.20;;;;;;5044653;28;45262;-72
2022/12/20 11:04:30;;;;;;;1.13;0.73;;;15.30;74.10;;;;;;5044770;28;46606;-72
2022/12/20 11:06:57;;;;;;;2.45;1.10;;;15.30;74.30;;;;;;5041444;28;45485;-72
2022/12/20 11:09:30;;;;;;;1.30;0.70;;;15.20;74.30;;;;;;5045199;28;45394;-72
2022/12/20 11:12:03;;;;;;;1.42;0.90;;;15.20;74.30;;;;;;5045299;28;45301;-72
2022/12/20 11:14:31;;;;;;;2.00;0.85;;;15.20;74.50;;;;;;5044508;28;45510;-73
2022/12/20 11:17:00;;;;;;;1.48;0.70;;;15.20;74.70;;;;;;5044743;28;45342;-72
2022/12/20 11:19:50;;;;;;;1.23;0.85;;;15.20;74.70;;;;;;5044690;28;45375;-72
2022/12/20 11:22:31;;;;;;;1.35;0.75;;;15.20;74.70;;;;;;5044809;28;45353;-72
2022/12/20 11:25:07;;;;;;;1.55;0.75;;;15.20;74.70;;;;;;5044517;28;46556;-72
2022/12/20 11:27:41;;;;;;;2.03;1.10;;;15.20;74.90;;;;;;5043892;28;45470;-72
2022/12/20 11:30:15;;;;;;;1.67;0.80;;;15.20;74.90;;;;;;5044953;28;45381;-73
2022/12/20 11:33:09;;;;;;;1.00;0.70;;;15.20;74.90;;;;;;5044757;28;45485;-72
2022/12/20 11:35:49;;;;;;;1.67;0.65;;;15.20;74.90;;;;;;5044100;28;45293;-72
2022/12/20 11:38:27;;;;;;;2.13;0.73;;;15.20;74.80;;;;;;5044600;28;45360;-72
2022/12/20 11:41:02;;;;;;;1.60;0.90;;;15.30;74.70;;;;;;5044861;28;45283;-71
2022/12/20 11:43:49;;;;;;;1.73;0.90;;;15.30;74.50;;;;;;5044313;28;45223;-72
2022/12/20 11:46:26;;;;;;;2.40;1.00;;;15.30;74.20;;;;;;5044381;28;45621;-73
2022/12/20 11:49:20;;;;;;;1.60;0.93;;;15.30;74.20;;;;;;5043353;28;45360;-72
2022/12/20 11:51:52;;;;;;;3.50;1.00;;;15.30;74.20;;;;;;5044716;28;45218;-72
2022/12/20 11:54:26;;;;;;;1.42;0.80;;;15.30;74.10;;;;;;5044387;28;45440;-72
2022/12/20 11:56:59;;;;;;;1.10;0.80;;;15.30;74.20;;;;;;5043510;28;45367;-73
2022/12/20 11:59:36;;;;;;;1.38;0.65;;;15.30;74.10;;;;;;5044650;28;45470;-73
2022/12/20 12:02:11;;;;;;;1.27;0.77;;;15.20;74.00;;;;;;5044076;28;45373;-72
2022/12/20 12:04:43;;;;;;;1.23;0.75;;;15.20;74.10;;;;;;5041631;28;45371;-73
2022/12/20 12:07:16;;;;;;;2.78;0.70;;;15.20;74.10;;;;;;5043609;28;46653;-72
2022/12/20 12:09:51;;;;;;;2.03;0.60;;;15.20;74.10;;;;;;5044248;28;45353;-72
2022/12/20 12:12:24;;;;;;;2.20;0.70;;;15.30;75.70;;;;;;5044097;28;45386;-72
2022/12/20 12:14:58;;;;;;;0.80;0.50;;;15.30;74.70;;;;;;5044195;28;45258;-72
2022/12/20 12:17:35;;;;;;;1.55;0.77;;;15.20;74.80;;;;;;5043440;28;45283;-73
2022/12/20 12:20:18;;;;;;;0.70;0.43;;;15.20;74.90;;;;;;5044097;28;45330;-73
2022/12/20 12:22:49;;;;;;;1.42;0.80;;;15.30;75.00;;;;;;5043922;28;45213;-73
2022/12/20 12:25:18;;;;;;;0.40;0.40;;;15.30;75.00;;;;;;5043908;28;45704;-72
2022/12/20 12:27:45;;;;;;;1.77;0.68;;;15.30;75.00;;;;;;5043056;28;45351;-72
2022/12/20 12:30:14;;;;;;;1.52;0.52;;;15.30;75.00;;;;;;5043992;28;45221;-73
2022/12/20 12:32:45;;;;;;;1.15;0.80;;;15.30;75.10;;;;;;5044306;28;45257;-73
2022/12/20 12:35:25;;;;;;;0.88;0.50;;;15.30;75.10;;;;;;5041235;28;45276;-73
2022/12/20 12:38:08;;;;;;;2.75;0.75;;;15.30;75.20;;;;;;5044026;28;47500;-72
2022/12/20 12:44:31;;;;;;;0.88;0.55;;;15.40;75.60;;;;;;5041855;28;45360;-73
2022/12/20 12:47:01;;;;;;;0.35;0.30;;;15.30;75.60;;;;;;5043636;28;45489;-73
2022/12/20 12:49:30;;;;;;;2.70;0.70;;;15.30;75.70;;;;;;5042393;28;47746;-73
2022/12/20 12:51:59;;;;;;;1.05;0.65;;;15.30;75.80;;;;;;5043589;28;45356;-73
2022/12/20 12:54:30;;;;;;;0.63;0.47;;;15.30;75.90;;;;;;5043702;28;45434;-73
2022/12/20 12:57:02;;;;;;;0.63;0.50;;;15.30;76.00;;;;;;5043814;28;45254;-73
2022/12/20 12:59:50;;;;;;;0.80;0.60;;;15.30;76.10;;;;;;5043768;28;45198;-73
2022/12/20 13:02:51;;;;;;;1.20;0.43;;;15.30;76.20;;;;;;5042544;28;45375;-73
2022/12/20 13:05:33;;;;;;;0.45;0.40;;;15.30;76.20;;;;;;5042300;28;45313;-73
2022/12/20 13:08:00;;;;;;;0.75;0.50;;;15.30;76.30;;;;;;5042266;28;45467;-73
2022/12/20 13:11:00;;;;;;;1.70;0.60;;;15.30;76.30;;;;;;5041675;28;46891;-74